ESMW weather

CLOSED Tingsryd Airport
Tingsryd, Kronoberge län, Sweden

Public forecast

Using degrees Celsius for public forecast. Weather courtesy of forecast.io.

METAR (pilot weather report)

Closest report is Ronneby Airport, 18.9 nm (34.9 km) SSE. Retrieved 2019/09/15 08:20 UTC (20 minutes ago):

ESDF 150820Z 23009KT 9999 -RA BKN020 14/12 Q1008

TAF (pilot weather forecast)

Forecast is more than 12 hours old.

Closest forecast is Ronneby Airport, 18.9 nm (34.9 km) SSE. Retrieved 2018/05/29 12:27 UTC (1 year ago):

TAF TAF ESDF 291425Z 2912/2924 07008KT CAVOK RMK MIL